sensor_id;sensor_type;location;lat;lon;timestamp;pressure;altitude;pressure_sealevel;temperature;humidity
67697;BME280;54486;51.442;6.778;2023-04-22T00:01:18;100673.97;;;10.04;100.00
67697;BME280;54486;51.442;6.778;2023-04-22T00:03:46;100668.81;;;9.98;100.00
67697;BME280;54486;51.442;6.778;2023-04-22T00:06:13;100674.03;;;9.92;100.00
67697;BME280;54486;51.442;6.778;2023-04-22T00:08:43;100670.56;;;9.93;100.00
67697;BME280;54486;51.442;6.778;2023-04-22T00:11:10;100670.56;;;9.93;100.00
67697;BME280;54486;51.442;6.778;2023-04-22T00:13:37;100667.09;;;9.91;100.00
67697;BME280;54486;51.442;6.778;2023-04-22T00:16:04;100662.75;;;9.90;100.00
67697;BME280;54486;51.442;6.778;2023-04-22T00:18:34;100670.56;;;9.93;100.00
67697;BME280;54486;51.442;6.778;2023-04-22T00:21:03;100666.22;;;9.91;100.00
67697;BME280;54486;51.442;6.778;2023-04-22T00:23:30;100664.50;;;9.90;100.00
67697;BME280;54486;51.442;6.778;2023-04-22T00:25:57;100664.47;;;9.93;100.00
67697;BME280;54486;51.442;6.778;2023-04-22T00:28:24;100658.38;;;9.92;100.00
67697;BME280;54486;51.442;6.778;2023-04-22T00:30:52;100667.09;;;9.91;100.00
67697;BME280;54486;51.442;6.778;2023-04-22T00:33:19;100661.91;;;9.88;100.00
67697;BME280;54486;51.442;6.778;2023-04-22T00:35:46;100669.69;;;9.93;100.00
67697;BME280;54486;51.442;6.778;2023-04-22T00:38:14;100665.34;;;9.93;100.00
67697;BME280;54486;51.442;6.778;2023-04-22T00:40:42;100667.97;;;9.92;100.00
67697;BME280;54486;51.442;6.778;2023-04-22T00:43:10;100662.75;;;9.90;100.00
67697;BME280;54486;51.442;6.778;2023-04-22T00:45:38;100661.84;;;9.97;100.00
67697;BME280;54486;51.442;6.778;2023-04-22T00:48:06;100649.72;;;9.90;100.00
67697;BME280;54486;51.442;6.778;2023-04-22T00:50:33;100661.88;;;9.94;100.00
67697;BME280;54486;51.442;6.778;2023-04-22T00:53:01;100652.31;;;9.95;100.00
67697;BME280;54486;51.442;6.778;2023-04-22T00:55:28;100654.91;;;9.93;100.00
67697;BME280;54486;51.442;6.778;2023-04-22T00:57:57;100653.19;;;9.95;100.00
67697;BME280;54486;51.442;6.778;2023-04-22T01:00:27;100654.91;;;9.93;100.00
67697;BME280;54486;51.442;6.778;2023-04-22T01:02:54;100649.69;;;9.96;100.00
67697;BME280;54486;51.442;6.778;2023-04-22T01:05:23;100646.19;;;10.00;100.00
67697;BME280;54486;51.442;6.778;2023-04-22T01:07:50;100646.16;;;10.02;100.00
67697;BME280;54486;51.442;6.778;2023-04-22T01:10:18;100643.56;;;10.03;100.00
67697;BME280;54486;51.442;6.778;2023-04-22T01:12:45;100642.72;;;9.98;100.00
67697;BME280;54486;51.442;6.778;2023-04-22T01:15:13;100639.25;;;9.96;100.00
67697;BME280;54486;51.442;6.778;2023-04-22T01:17:40;100644.47;;;9.96;100.00
67697;BME280;54486;51.442;6.778;2023-04-22T01:20:07;100650.56;;;9.95;100.00
67697;BME280;54486;51.442;6.778;2023-04-22T01:22:40;100644.50;;;9.90;100.00
67697;BME280;54486;51.442;6.778;2023-04-22T01:25:09;100647.13;;;9.90;100.00
67697;BME280;54486;51.442;6.778;2023-04-22T01:27:37;100641.06;;;9.88;100.00
67697;BME280;54486;51.442;6.778;2023-04-22T01:30:06;100641.03;;;9.90;100.00
67697;BME280;54486;51.442;6.778;2023-04-22T01:32:33;100644.53;;;9.87;100.00
67697;BME280;54486;51.442;6.778;2023-04-22T01:35:01;100638.47;;;9.84;100.00
67697;BME280;54486;51.442;6.778;2023-04-22T01:37:29;100646.34;;;9.76;100.00
67697;BME280;54486;51.442;6.778;2023-04-22T01:39:57;100651.50;;;9.88;100.00
67697;BME280;54486;51.442;6.778;2023-04-22T01:42:25;100642.78;;;9.89;100.00
67697;BME280;54486;51.442;6.778;2023-04-22T01:44:52;100641.06;;;9.88;100.00
67697;BME280;54486;51.442;6.778;2023-04-22T01:47:19;100635.84;;;9.88;100.00
67697;BME280;54486;51.442;6.778;2023-04-22T01:49:46;100644.50;;;9.90;100.00
67697;BME280;54486;51.442;6.778;2023-04-22T01:52:13;100639.28;;;9.93;100.00
67697;BME280;54486;51.442;6.778;2023-04-22T01:54:41;100644.50;;;9.93;100.00
67697;BME280;54486;51.442;6.778;2023-04-22T01:57:10;100641.03;;;9.91;100.00
67697;BME280;54486;51.442;6.778;2023-04-22T01:59:41;100647.13;;;9.92;100.00
67697;BME280;54486;51.442;6.778;2023-04-22T02:02:09;100644.53;;;9.87;100.00
67697;BME280;54486;51.442;6.778;2023-04-22T02:04:36;100646.28;;;9.88;100.00
67697;BME280;54486;51.442;6.778;2023-04-22T02:07:03;100644.53;;;9.87;100.00
67697;BME280;54486;51.442;6.778;2023-04-22T02:09:32;100648.84;;;9.90;100.00
67697;BME280;54486;51.442;6.778;2023-04-22T02:11:59;100654.97;;;9.89;100.00
67697;BME280;54486;51.442;6.778;2023-04-22T02:14:27;100649.72;;;9.92;100.00
67697;BME280;54486;51.442;6.778;2023-04-22T02:16:53;100646.25;;;9.91;100.00
67697;BME280;54486;51.442;6.778;2023-04-22T02:19:20;100649.72;;;9.90;100.00
67697;BME280;54486;51.442;6.778;2023-04-22T02:21:48;100645.41;;;9.86;100.00
67697;BME280;54486;51.442;6.778;2023-04-22T02:24:15;100647.16;;;9.84;100.00
67697;BME280;54486;51.442;6.778;2023-04-22T02:26:42;100642.81;;;9.83;100.00
67697;BME280;54486;51.442;6.778;2023-04-22T02:29:09;100641.09;;;9.85;100.00
67697;BME280;54486;51.442;6.778;2023-04-22T02:31:37;100640.22;;;9.85;100.00
67697;BME280;54486;51.442;6.778;2023-04-22T02:34:05;100642.84;;;9.80;100.00
67697;BME280;54486;51.442;6.778;2023-04-22T02:36:33;100646.34;;;9.79;100.00
67697;BME280;54486;51.442;6.778;2023-04-22T02:39:01;100630.69;;;9.82;100.00
67697;BME280;54486;51.442;6.778;2023-04-22T02:41:32;100635.91;;;9.82;100.00
67697;BME280;54486;51.442;6.778;2023-04-22T02:43:59;100637.59;;;9.83;100.00
67697;BME280;54486;51.442;6.778;2023-04-22T02:46:26;100622.88;;;9.82;100.00
67697;BME280;54486;51.442;6.778;2023-04-22T02:48:53;100623.72;;;9.84;100.00
67697;BME280;54486;51.442;6.778;2023-04-22T02:51:20;100619.38;;;9.85;100.00
67697;BME280;54486;51.442;6.778;2023-04-22T02:53:49;100615.03;;;9.82;100.00
67697;BME280;54486;51.442;6.778;2023-04-22T02:56:16;100615.03;;;9.82;100.00
67697;BME280;54486;51.442;6.778;2023-04-22T02:58:43;100609.81;;;9.85;100.00
67697;BME280;54486;51.442;6.778;2023-04-22T03:01:10;100610.66;;;9.89;100.00
67697;BME280;54486;51.442;6.778;2023-04-22T03:03:38;100615.03;;;9.85;100.00
67697;BME280;54486;51.442;6.778;2023-04-22T03:06:05;100606.31;;;9.86;100.00
67697;BME280;54486;51.442;6.778;2023-04-22T03:08:32;100610.69;;;9.84;100.00
67697;BME280;54486;51.442;6.778;2023-04-22T03:10:59;100610.69;;;9.86;100.00
67697;BME280;54486;51.442;6.778;2023-04-22T03:13:26;100596.78;;;9.85;100.00
67697;BME280;54486;51.442;6.778;2023-04-22T03:15:53;100595.88;;;9.86;100.00
67697;BME280;54486;51.442;6.778;2023-04-22T03:18:20;100594.19;;;9.85;100.00
67697;BME280;54486;51.442;6.778;2023-04-22T03:20:48;100592.44;;;9.84;100.00
67697;BME280;54486;51.442;6.778;2023-04-22T03:23:15;100588.06;;;9.88;100.00
67697;BME280;54486;51.442;6.778;2023-04-22T03:25:42;100594.13;;;9.91;100.00
67697;BME280;54486;51.442;6.778;2023-04-22T03:28:09;100583.69;;;9.94;100.00
67697;BME280;54486;51.442;6.778;2023-04-22T03:30:36;100588.91;;;9.91;100.00
67697;BME280;54486;51.442;6.778;2023-04-22T03:33:03;100580.22;;;9.89;100.00
67697;BME280;54486;51.442;6.778;2023-04-22T03:35:30;100581.94;;;9.93;100.00
67697;BME280;54486;51.442;6.778;2023-04-22T03:37:57;100581.94;;;9.95;100.00
67697;BME280;54486;51.442;6.778;2023-04-22T03:40:25;100574.97;;;9.92;100.00
67697;BME280;54486;51.442;6.778;2023-04-22T03:42:52;100576.75;;;9.90;100.00
67697;BME280;54486;51.442;6.778;2023-04-22T03:45:21;100575.91;;;9.87;100.00
67697;BME280;54486;51.442;6.778;2023-04-22T03:47:48;100577.66;;;9.88;100.00
67697;BME280;54486;51.442;6.778;2023-04-22T03:50:16;100568.97;;;9.89;100.00
67697;BME280;54486;51.442;6.778;2023-04-22T03:52:44;100564.63;;;9.83;100.00
67697;BME280;54486;51.442;6.778;2023-04-22T03:55:12;100569.00;;;9.80;100.00
67697;BME280;54486;51.442;6.778;2023-04-22T03:57:39;100564.66;;;9.80;100.00
67697;BME280;54486;51.442;6.778;2023-04-22T04:00:07;100568.16;;;9.79;100.00
67697;BME280;54486;51.442;6.778;2023-04-22T04:02:35;100557.75;;;9.79;100.00
67697;BME280;54486;51.442;6.778;2023-04-22T04:05:07;100554.22;;;9.83;100.00
67697;BME280;54486;51.442;6.778;2023-04-22T04:07:36;100559.44;;;9.83;100.00
67697;BME280;54486;51.442;6.778;2023-04-22T04:10:06;100555.09;;;9.84;100.00
67697;BME280;54486;51.442;6.778;2023-04-22T04:12:33;100558.56;;;9.83;100.00
67697;BME280;54486;51.442;6.778;2023-04-22T04:15:01;100551.66;;;9.79;100.00
67697;BME280;54486;51.442;6.778;2023-04-22T04:17:28;100556.91;;;9.76;100.00
67697;BME280;54486;51.442;6.778;2023-04-22T04:19:56;100559.50;;;9.74;100.00
67697;BME280;54486;51.442;6.778;2023-04-22T04:22:23;100556.88;;;9.77;100.00
67697;BME280;54486;51.442;6.778;2023-04-22T04:24:51;100549.03;;;9.80;100.00
67697;BME280;54486;51.442;6.778;2023-04-22T04:27:23;100544.72;;;9.78;100.00
67697;BME280;54486;51.442;6.778;2023-04-22T04:29:50;100542.09;;;9.78;100.00
67697;BME280;54486;51.442;6.778;2023-04-22T04:32:18;100547.34;;;9.76;100.00
67697;BME280;54486;51.442;6.778;2023-04-22T04:34:46;100544.75;;;9.75;100.00
67697;BME280;54486;51.442;6.778;2023-04-22T04:37:13;100543.84;;;9.77;100.00
67697;BME280;54486;51.442;6.778;2023-04-22T04:39:40;100541.25;;;9.76;100.00
67697;BME280;54486;51.442;6.778;2023-04-22T04:42:08;100540.41;;;9.75;100.00
67697;BME280;54486;51.442;6.778;2023-04-22T04:44:35;100533.41;;;9.80;100.00
67697;BME280;54486;51.442;6.778;2023-04-22T04:47:02;100539.50;;;9.79;100.00
67697;BME280;54486;51.442;6.778;2023-04-22T04:49:29;100533.41;;;9.77;100.00
67697;BME280;54486;51.442;6.778;2023-04-22T04:51:57;100536.06;;;9.76;100.00
67697;BME280;54486;51.442;6.778;2023-04-22T04:54:24;100543.84;;;9.77;100.00
67697;BME280;54486;51.442;6.778;2023-04-22T04:56:51;100545.56;;;9.80;100.00
67697;BME280;54486;51.442;6.778;2023-04-22T04:59:18;100535.16;;;9.78;100.00
67697;BME280;54486;51.442;6.778;2023-04-22T05:01:45;100531.63;;;9.85;100.00
67697;BME280;54486;51.442;6.778;2023-04-22T05:04:12;100529.88;;;9.87;100.00
67697;BME280;54486;51.442;6.778;2023-04-22T05:06:40;100522.06;;;9.89;100.00
67697;BME280;54486;51.442;6.778;2023-04-22T05:09:07;100521.16;;;9.91;100.00
67697;BME280;54486;51.442;6.778;2023-04-22T05:11:34;100515.88;;;9.96;100.00
67697;BME280;54486;51.442;6.778;2023-04-22T05:14:02;100517.63;;;9.98;100.00
67697;BME280;54486;51.442;6.778;2023-04-22T05:16:30;100515.81;;;10.03;100.00
67697;BME280;54486;51.442;6.778;2023-04-22T05:18:58;100523.63;;;10.06;100.00
67697;BME280;54486;51.442;6.778;2023-04-22T05:21:24;100527.03;;;10.11;100.00
67697;BME280;54486;51.442;6.778;2023-04-22T05:23:52;100525.28;;;10.15;100.00
67697;BME280;54486;51.442;6.778;2023-04-22T05:26:19;100525.22;;;10.21;100.00
67697;BME280;54486;51.442;6.778;2023-04-22T05:28:47;100519.16;;;10.24;100.00
67697;BME280;54486;51.442;6.778;2023-04-22T05:31:13;100517.31;;;10.32;100.00
67697;BME280;54486;51.442;6.778;2023-04-22T05:33:41;100514.66;;;10.35;100.00
67697;BME280;54486;51.442;6.778;2023-04-22T05:36:08;100517.25;;;10.38;100.00
67697;BME280;54486;51.442;6.778;2023-04-22T05:38:36;100519.81;;;10.41;100.00
67697;BME280;54486;51.442;6.778;2023-04-22T05:41:03;100518.88;;;10.48;100.00
67697;BME280;54486;51.442;6.778;2023-04-22T05:43:30;100529.28;;;10.51;100.00
67697;BME280;54486;51.442;6.778;2023-04-22T05:45:57;100536.22;;;10.52;100.00
67697;BME280;54486;51.442;6.778;2023-04-22T05:48:24;100532.72;;;10.56;100.00
67697;BME280;54486;51.442;6.778;2023-04-22T05:50:52;100533.50;;;10.61;100.00
67697;BME280;54486;51.442;6.778;2023-04-22T05:53:20;100518.63;;;10.69;100.00
67697;BME280;54486;51.442;6.778;2023-04-22T05:55:47;100527.28;;;10.74;100.00
67697;BME280;54486;51.442;6.778;2023-04-22T05:58:14;100519.38;;;10.80;100.00
67697;BME280;54486;51.442;6.778;2023-04-22T06:00:41;100532.28;;;10.89;100.00
67697;BME280;54486;51.442;6.778;2023-04-22T06:03:08;100534.81;;;10.95;100.00
67697;BME280;54486;51.442;6.778;2023-04-22T06:05:36;100532.16;;;10.98;100.00
67697;BME280;54486;51.442;6.778;2023-04-22T06:08:03;100534.75;;;11.03;100.00
67697;BME280;54486;51.442;6.778;2023-04-22T06:10:30;100523.31;;;11.11;100.00
67697;BME280;54486;51.442;6.778;2023-04-22T06:12:57;100533.63;;;11.21;100.00
67697;BME280;54486;51.442;6.778;2023-04-22T06:15:24;100526.56;;;11.29;100.00
67697;BME280;54486;51.442;6.778;2023-04-22T06:17:52;100528.19;;;11.36;100.00
67697;BME280;54486;51.442;6.778;2023-04-22T06:20:20;100525.44;;;11.45;100.00
67697;BME280;54486;51.442;6.778;2023-04-22T06:22:47;100529.66;;;11.52;100.00
67697;BME280;54486;51.442;6.778;2023-04-22T06:25:14;100519.16;;;11.58;100.00
67697;BME280;54486;51.442;6.778;2023-04-22T06:27:42;100531.22;;;11.65;100.00
67697;BME280;54486;51.442;6.778;2023-04-22T06:30:09;100525.91;;;11.69;100.00
67697;BME280;54486;51.442;6.778;2023-04-22T06:32:37;100522.38;;;11.75;100.00
67697;BME280;54486;51.442;6.778;2023-04-22T06:35:04;100517.91;;;11.83;100.00
67697;BME280;54486;51.442;6.778;2023-04-22T06:37:32;100515.25;;;11.85;100.00
67697;BME280;54486;51.442;6.778;2023-04-22T06:39:59;100521.22;;;11.93;100.00
67697;BME280;54486;51.442;6.778;2023-04-22T06:42:27;100521.22;;;11.93;100.00
67697;BME280;54486;51.442;6.778;2023-04-22T06:44:54;100511.56;;;11.96;100.00
67697;BME280;54486;51.442;6.778;2023-04-22T06:47:21;100521.88;;;12.04;100.00
67697;BME280;54486;51.442;6.778;2023-04-22T06:49:48;100520.09;;;12.07;100.00
67697;BME280;54486;51.442;6.778;2023-04-22T06:52:16;100514.78;;;12.10;100.00
67697;BME280;54486;51.442;6.778;2023-04-22T06:54:43;100526.81;;;12.20;100.00
67697;BME280;54486;51.442;6.778;2023-04-22T06:57:10;100510.16;;;12.26;99.76
67697;BME280;54486;51.442;6.778;2023-04-22T06:59:37;100508.28;;;12.33;99.10
67697;BME280;54486;51.442;6.778;2023-04-22T07:02:04;100509.91;;;12.40;99.01
67697;BME280;54486;51.442;6.778;2023-04-22T07:04:31;100512.34;;;12.49;97.89
67697;BME280;54486;51.442;6.778;2023-04-22T07:06:59;100506.91;;;12.58;96.63
67697;BME280;54486;51.442;6.778;2023-04-22T07:09:25;100504.91;;;12.70;95.20
67697;BME280;54486;51.442;6.778;2023-04-22T07:11:53;100518.75;;;12.77;96.07
67697;BME280;54486;51.442;6.778;2023-04-22T07:14:19;100506.44;;;12.82;96.28
67697;BME280;54486;51.442;6.778;2023-04-22T07:16:47;100505.38;;;12.91;95.88
67697;BME280;54486;51.442;6.778;2023-04-22T07:19:14;100500.81;;;12.99;95.04
67697;BME280;54486;51.442;6.778;2023-04-22T07:21:41;100498.78;;;13.14;94.04
67697;BME280;54486;51.442;6.778;2023-04-22T07:24:08;100503.53;;;13.36;90.86
67697;BME280;54486;51.442;6.778;2023-04-22T07:26:41;100503.25;;;13.48;90.11
67697;BME280;54486;51.442;6.778;2023-04-22T07:29:09;100506.47;;;13.59;88.34
67697;BME280;54486;51.442;6.778;2023-04-22T07:31:38;100493.16;;;13.66;88.60
67697;BME280;54486;51.442;6.778;2023-04-22T07:34:05;100492.84;;;13.78;89.21
67697;BME280;54486;51.442;6.778;2023-04-22T07:36:33;100494.50;;;13.83;86.85
67697;BME280;54486;51.442;6.778;2023-04-22T07:39:00;100484.72;;;13.91;86.75
67697;BME280;54486;51.442;6.778;2023-04-22T07:41:27;100480.88;;;14.04;87.18
67697;BME280;54486;51.442;6.778;2023-04-22T07:43:53;100492.00;;;14.12;84.12
67697;BME280;54486;51.442;6.778;2023-04-22T07:46:21;100489.13;;;14.22;83.55
67697;BME280;54486;51.442;6.778;2023-04-22T07:48:49;100487.28;;;14.24;83.86
67697;BME280;54486;51.442;6.778;2023-04-22T07:51:16;100481.94;;;14.29;83.58
67697;BME280;54486;51.442;6.778;2023-04-22T07:53:43;100476.56;;;14.34;83.64
67697;BME280;54486;51.442;6.778;2023-04-22T07:56:10;100473.69;;;14.43;82.12
67697;BME280;54486;51.442;6.778;2023-04-22T07:58:37;100472.34;;;14.59;82.13
67697;BME280;54486;51.442;6.778;2023-04-22T08:01:04;100461.50;;;14.71;80.63
67697;BME280;54486;51.442;6.778;2023-04-22T08:03:31;100460.38;;;14.79;80.67
67697;BME280;54486;51.442;6.778;2023-04-22T08:05:59;100452.25;;;14.87;79.56
67697;BME280;54486;51.442;6.778;2023-04-22T08:08:26;100453.31;;;15.09;75.67
67697;BME280;54486;51.442;6.778;2023-04-22T08:10:53;100458.31;;;15.18;76.23
67697;BME280;54486;51.442;6.778;2023-04-22T08:13:20;100449.28;;;15.27;76.67
67697;BME280;54486;51.442;6.778;2023-04-22T08:15:47;100449.03;;;15.34;75.53
67697;BME280;54486;51.442;6.778;2023-04-22T08:18:14;100451.28;;;15.47;73.57
67697;BME280;54486;51.442;6.778;2023-04-22T08:21:08;100446.75;;;15.52;72.73
67697;BME280;54486;51.442;6.778;2023-04-22T08:23:35;100462.31;;;15.58;73.00
67697;BME280;54486;51.442;6.778;2023-04-22T08:26:03;100451.38;;;15.70;72.61
67697;BME280;54486;51.442;6.778;2023-04-22T08:28:30;100454.94;;;15.69;72.52
67697;BME280;54486;51.442;6.778;2023-04-22T08:30:57;100449.38;;;15.78;72.35
67697;BME280;54486;51.442;6.778;2023-04-22T08:33:24;100454.41;;;15.84;71.65
67697;BME280;54486;51.442;6.778;2023-04-22T08:35:53;100438.19;;;15.96;70.45
67697;BME280;54486;51.442;6.778;2023-04-22T08:38:20;100438.63;;;16.09;70.61
67697;BME280;54486;51.442;6.778;2023-04-22T08:40:47;100438.31;;;16.42;70.08
67697;BME280;54486;51.442;6.778;2023-04-22T08:43:14;100427.34;;;16.55;68.62
67697;BME280;54486;51.442;6.778;2023-04-22T08:45:42;100432.16;;;16.67;68.82
67697;BME280;54486;51.442;6.778;2023-04-22T08:48:11;100434.19;;;16.82;68.90
67697;BME280;54486;51.442;6.778;2023-04-22T08:50:40;100432.19;;;16.88;68.57
67697;BME280;54486;51.442;6.778;2023-04-22T08:53:07;100430.16;;;16.95;68.06
67697;BME280;54486;51.442;6.778;2023-04-22T08:55:35;100435.28;;;17.00;67.21
67697;BME280;54486;51.442;6.778;2023-04-22T08:58:03;100427.16;;;17.04;66.89
67697;BME280;54486;51.442;6.778;2023-04-22T09:00:32;100423.25;;;17.14;65.55
67697;BME280;54486;51.442;6.778;2023-04-22T09:03:01;100408.91;;;17.21;64.09
67697;BME280;54486;51.442;6.778;2023-04-22T09:05:31;100406.81;;;17.29;64.25
67697;BME280;54486;51.442;6.778;2023-04-22T09:07:59;100411.84;;;17.35;63.88
67697;BME280;54486;51.442;6.778;2023-04-22T09:10:29;100414.13;;;17.44;65.29
67697;BME280;54486;51.442;6.778;2023-04-22T09:12:58;100407.44;;;17.58;64.30
67697;BME280;54486;51.442;6.778;2023-04-22T09:15:28;100408.88;;;17.65;62.67
67697;BME280;54486;51.442;6.778;2023-04-22T09:17:55;100415.47;;;17.75;62.61
67697;BME280;54486;51.442;6.778;2023-04-22T09:20:28;100416.47;;;17.72;63.09
67697;BME280;54486;51.442;6.778;2023-04-22T09:22:56;100411.03;;;17.77;63.14
67697;BME280;54486;51.442;6.778;2023-04-22T09:25:27;100410.22;;;17.75;62.54
67697;BME280;54486;51.442;6.778;2023-04-22T09:27:56;100411.66;;;17.82;61.51
67697;BME280;54486;51.442;6.778;2023-04-22T09:30:43;100411.88;;;17.97;61.80
67697;BME280;54486;51.442;6.778;2023-04-22T09:33:12;100410.13;;;17.96;62.41
67697;BME280;54486;51.442;6.778;2023-04-22T09:35:43;100414.97;;;18.07;62.22
67697;BME280;54486;51.442;6.778;2023-04-22T09:38:11;100410.50;;;18.09;61.59
67697;BME280;54486;51.442;6.778;2023-04-22T09:40:42;100395.78;;;18.22;61.85
67697;BME280;54486;51.442;6.778;2023-04-22T09:43:10;100400.69;;;18.31;60.08
67697;BME280;54486;51.442;6.778;2023-04-22T09:45:39;100394.97;;;18.40;59.92
67697;BME280;54486;51.442;6.778;2023-04-22T09:50:36;100394.97;;;18.40;60.06
67697;BME280;54486;51.442;6.778;2023-04-22T09:56:52;100394.72;;;18.84;58.37
67697;BME280;54486;51.442;6.778;2023-04-22T10:01:49;100388.41;;;19.05;57.93
67697;BME280;54486;51.442;6.778;2023-04-22T10:04:16;100387.97;;;19.14;56.78
67697;BME280;54486;51.442;6.778;2023-04-22T10:06:47;100394.81;;;19.18;56.64
67697;BME280;54486;51.442;6.778;2023-04-22T10:09:17;100390.94;;;19.25;56.88
67697;BME280;54486;51.442;6.778;2023-04-22T10:11:46;100383.06;;;19.42;56.62
67697;BME280;54486;51.442;6.778;2023-04-22T10:14:13;100376.59;;;19.48;56.63
67697;BME280;54486;51.442;6.778;2023-04-22T10:16:42;100384.38;;;19.51;56.86
67697;BME280;54486;51.442;6.778;2023-04-22T10:19:14;100391.16;;;19.57;56.35
67697;BME280;54486;51.442;6.778;2023-04-22T10:21:45;100382.06;;;19.45;56.12
67697;BME280;54486;51.442;6.778;2023-04-22T10:24:16;100381.19;;;19.44;56.01
67697;BME280;54486;51.442;6.778;2023-04-22T10:26:54;100367.03;;;19.45;56.11
67697;BME280;54486;51.442;6.778;2023-04-22T10:29:25;100371.00;;;19.54;57.26
67697;BME280;54486;51.442;6.778;2023-04-22T10:32:22;100385.56;;;19.63;56.35
67697;BME280;54486;51.442;6.778;2023-04-22T10:35:06;100383.38;;;19.71;56.03
67697;BME280;54486;51.442;6.778;2023-04-22T10:37:34;100374.69;;;19.69;56.48
67697;BME280;54486;51.442;6.778;2023-04-22T10:40:15;100375.13;;;19.60;56.27
67697;BME280;54486;51.442;6.778;2023-04-22T10:42:49;100376.84;;;19.61;56.39
67697;BME280;54486;51.442;6.778;2023-04-22T10:45:16;100375.97;;;19.60;55.86
67697;BME280;54486;51.442;6.778;2023-04-22T10:47:44;100367.28;;;19.58;56.17
67697;BME280;54486;51.442;6.778;2023-04-22T10:50:23;100362.13;;;19.55;56.95
67697;BME280;54486;51.442;6.778;2023-04-22T10:52:55;100364.84;;;19.53;58.02
67697;BME280;54486;51.442;6.778;2023-04-22T10:55:23;100375.28;;;19.57;57.80
67697;BME280;54486;51.442;6.778;2023-04-22T10:57:53;100361.44;;;19.69;57.17
67697;BME280;54486;51.442;6.778;2023-04-22T11:00:27;100361.72;;;19.80;57.75
67697;BME280;54486;51.442;6.778;2023-04-22T11:03:10;100371.34;;;19.98;56.52
67697;BME280;54486;51.442;6.778;2023-04-22T11:05:38;100366.47;;;20.23;54.97
67697;BME280;54486;51.442;6.778;2023-04-22T11:08:14;100379.03;;;20.37;54.50
67697;BME280;54486;51.442;6.778;2023-04-22T11:10:48;100364.25;;;20.48;54.02
67697;BME280;54486;51.442;6.778;2023-04-22T11:13:20;100355.63;;;20.61;54.14
67697;BME280;54486;51.442;6.778;2023-04-22T11:15:49;100357.19;;;20.80;54.88
67697;BME280;54486;51.442;6.778;2023-04-22T11:18:25;100359.53;;;21.00;51.50
67697;BME280;54486;51.442;6.778;2023-04-22T11:20:53;100356.72;;;21.19;52.69
67697;BME280;54486;51.442;6.778;2023-04-22T11:23:26;100369.31;;;21.31;52.47
67697;BME280;54486;51.442;6.778;2023-04-22T11:25:57;100360.19;;;21.35;51.23
67697;BME280;54486;51.442;6.778;2023-04-22T11:28:24;100373.34;;;21.52;51.19
67697;BME280;54486;51.442;6.778;2023-04-22T11:30:52;100375.31;;;21.79;49.79
67697;BME280;54486;51.442;6.778;2023-04-22T11:33:19;100367.56;;;21.90;49.56
67697;BME280;54486;51.442;6.778;2023-04-22T11:35:48;100362.47;;;22.15;49.00
67697;BME280;54486;51.442;6.778;2023-04-22T11:38:15;100357.72;;;22.34;48.36
67697;BME280;54486;51.442;6.778;2023-04-22T11:40:43;100356.59;;;22.38;49.64
67697;BME280;54486;51.442;6.778;2023-04-22T11:43:13;100362.06;;;22.63;48.58
67697;BME280;54486;51.442;6.778;2023-04-22T11:45:40;100367.00;;;22.84;48.55
67697;BME280;54486;51.442;6.778;2023-04-22T11:48:09;100362.09;;;22.78;48.48
67697;BME280;54486;51.442;6.778;2023-04-22T11:50:39;100374.53;;;22.77;47.70
67697;BME280;54486;51.442;6.778;2023-04-22T11:55:42;100358.44;;;22.79;49.00
67697;BME280;54486;51.442;6.778;2023-04-22T11:58:14;100362.84;;;22.65;48.05
67697;BME280;54486;51.442;6.778;2023-04-22T12:03:18;100357.91;;;22.31;48.07
67697;BME280;54486;51.442;6.778;2023-04-22T12:05:57;100352.59;;;22.31;49.04
67697;BME280;54486;51.442;6.778;2023-04-22T12:08:33;100360.47;;;22.19;49.12
67697;BME280;54486;51.442;6.778;2023-04-22T12:11:03;100348.22;;;22.02;49.71
67697;BME280;54486;51.442;6.778;2023-04-22T12:13:38;100349.38;;;21.98;49.73
67697;BME280;54486;51.442;6.778;2023-04-22T12:16:18;100356.00;;;21.91;49.39
67697;BME280;54486;51.442;6.778;2023-04-22T12:18:53;100352.59;;;22.03;50.34
67697;BME280;54486;51.442;6.778;2023-04-22T12:21:22;100351.06;;;21.99;49.02
67697;BME280;54486;51.442;6.778;2023-04-22T12:23:54;100359.03;;;21.99;49.75
67697;BME280;54486;51.442;6.778;2023-04-22T12:26:23;100362.34;;;21.88;50.35
67697;BME280;54486;51.442;6.778;2023-04-22T12:28:54;100359.47;;;21.77;50.22
67697;BME280;54486;51.442;6.778;2023-04-22T12:31:24;100369.03;;;21.66;50.53
67697;BME280;54486;51.442;6.778;2023-04-22T12:33:51;100365.41;;;21.67;49.76
67697;BME280;54486;51.442;6.778;2023-04-22T12:36:19;100359.56;;;21.76;51.68
67697;BME280;54486;51.442;6.778;2023-04-22T12:38:47;100352.59;;;22.03;50.50
67697;BME280;54486;51.442;6.778;2023-04-22T12:41:14;100355.66;;;22.25;50.68
67697;BME280;54486;51.442;6.778;2023-04-22T12:43:41;100351.75;;;22.59;49.51
67697;BME280;54486;51.442;6.778;2023-04-22T12:46:09;100339.28;;;22.74;49.45
67697;BME280;54486;51.442;6.778;2023-04-22T12:48:36;100328.03;;;22.83;49.01
67697;BME280;54486;51.442;6.778;2023-04-22T12:51:05;100328.75;;;22.99;48.81
67697;BME280;54486;51.442;6.778;2023-04-22T12:53:33;100341.97;;;23.00;48.52
67697;BME280;54486;51.442;6.778;2023-04-22T12:56:00;100346.53;;;22.72;47.89
67697;BME280;54486;51.442;6.778;2023-04-22T12:58:28;100345.16;;;22.79;48.71
67697;BME280;54486;51.442;6.778;2023-04-22T13:00:55;100340.34;;;23.25;48.07
67697;BME280;54486;51.442;6.778;2023-04-22T13:03:22;100341.28;;;23.50;47.71
67697;BME280;54486;51.442;6.778;2023-04-22T13:05:49;100340.13;;;23.54;45.74
67697;BME280;54486;51.442;6.778;2023-04-22T13:08:17;100346.31;;;23.28;46.46